CST,Max TemperatureF,Mean TemperatureF,Min TemperatureF,Max Dew PointF,MeanDew PointF,Min DewpointF,Max Humidity, Mean Humidity, Min Humidity, Max Sea Level PressureIn, Mean Sea Level PressureIn, Min Sea Level PressureIn, Max VisibilityMiles, Mean VisibilityMiles, Min VisibilityMiles, Max Wind SpeedMPH, Mean Wind SpeedMPH, Max Gust SpeedMPH,PrecipitationIn, CloudCover, Events, WindDirDegrees
2013-11-1,47,38,29,42,38,30,100,90,70,29.78,29.57,29.35,10,8,2,13,7,18,0.00,7,Rain,288
2013-11-2,46,35,23,35,32,23,100,81,53,30.14,29.98,29.78,10,10,10,10,4,16,0.00,5,,302
2013-11-3,52,35,18,34,27,18,100,72,38,30.22,30.15,30.06,10,10,0,13,3,20,0.00,1,Fog,149
2013-11-4,49,40,31,46,37,31,100,76,55,30.15,30.03,29.95,10,7,0,13,8,21,0.02,5,Fog-Rain,179
2013-11-5,43,36,28,44,37,28,100,100,100,30.24,30.11,29.84,10,2,0,14,3,20,0.58,8,Fog-Rain,31
2013-11-6,43,34,24,40,29,18,100,77,38,30.16,29.99,29.82,10,9,1,16,9,26,0.16,4,Rain,314
2013-11-7,35,26,18,30,25,18,100,92,72,30.22,30.19,30.15,10,7,4,9,3,,0.00,4,,260
2013-11-8,44,28,13,37,25,12,100,80,46,30.22,30.04,29.67,10,8,3,14,2,18,0.02,3,Rain,151
2013-11-9,47,42,38,40,32,24,80,64,51,30.11,29.85,29.65,10,10,10,22,10,37,0.00,8,Rain,266
2013-11-10,46,41,36,29,27,24,66,57,41,30.32,30.21,30.07,10,10,10,15,7,20,0.00,6,,262
2013-11-11,41,30,19,34,18,8,100,65,44,30.62,30.32,30.05,10,9,2,14,6,22,0.00,4,Rain-Snow,325
2013-11-12,28,19,10,13,9,7,85,64,44,30.75,30.65,30.51,10,10,10,10,5,20,0.00,0,,270
2013-11-13,46,30,13,24,17,10,88,57,40,30.50,30.18,29.94,10,10,10,20,6,26,0.00,0,,210
2013-11-14,45,36,28,39,26,18,100,67,46,29.93,29.86,29.80,10,10,10,10,6,,0.00,3,Rain,211
2013-11-15,54,37,20,35,30,21,100,80,42,29.89,29.83,29.77,10,9,5,7,1,,0.00,0,,188
2013-11-16,56,48,39,57,44,32,100,89,64,29.77,29.53,29.31,10,7,0,13,4,,0.14,7,Fog-Rain-Thunderstorm,170
2013-11-17,44,38,32,44,37,30,100,92,69,29.65,29.40,29.28,10,7,0,23,4,32,0.09,5,Fog-Rain,279
2013-11-18,33,24,15,25,19,15,100,75,62,30.26,30.15,29.80,10,10,10,18,10,29,0.00,4,,295
2013-11-19,41,26,10,24,18,10,100,71,41,30.31,30.22,30.10,10,10,10,9,2,,0.00,1,,141
2013-11-20,40,36,32,33,28,21,100,74,46,30.11,30.06,30.02,10,6,0,13,6,20,0.08,8,Snow,156
2013-11-21,38,34,29,38,34,26,100,97,80,30.36,30.18,30.06,10,4,0,12,2,17,0.02,8,Fog-Snow,339
2013-11-22,32,24,15,26,16,9,90,68,40,30.53,30.46,30.36,10,9,1,14,7,18,0.00,2,Snow,295
2013-11-23,23,10,-2,14,1,-7,85,64,43,30.73,30.67,30.46,10,10,7,14,8,24,0.00,2,Snow,314
2013-11-24,26,10,-5,7,-1,-10,84,58,32,30.69,30.44,30.10,10,10,10,16,4,26,0.00,0,,205
2013-11-25,38,32,26,26,19,6,76,58,41,30.08,29.98,29.93,10,10,10,14,9,23,0.00,7,,241
2013-11-26,36,24,11,23,8,0,80,53,36,30.29,30.14,29.98,10,10,2,20,10,28,0.00,4,Snow,316
2013-11-27,26,16,7,11,7,2,85,62,42,30.32,30.23,30.13,10,10,10,7,3,,0.00,3,,310
2013-11-28,31,18,5,16,11,2,88,61,44,30.50,30.26,30.09,10,10,10,10,3,16,0.00,6,,317
2013-11-29,33,16,0,18,10,-4,88,70,45,30.56,30.44,30.23,10,10,10,13,2,17,0.00,1,,164
2013-11-30,41,32,22,26,23,18,89,65,49,30.22,30.07,30.00,10,10,7,7,3,,0.00,3,,241